AREA preflight bulletin
Updated "live" 19 Jan 2019, 12:13

back to the map




METAR og TAF


THULE (MIL)
  AKTUEL BGTL 191156Z AUTO 10007KT 9999 CLR M30/M33 A2934 RMK AO2 SLPNO T12981328 11286 21316 57019 TSNO CHINO RWY26 ?=
  TAF 24 timer BGTL 181000Z 1810/1916 10009KT 9999 FEW070 QNH2933INS WND 080V180 TXM26/1818Z TNM33/1910Z LAST NO AMDS AFT 1814 NEXT 2210=

QAANAAQ
  AKTUEL BGQQ 191150Z AUTO VRB01KT 9999NDV NCD M29/M34 Q0997=

UPERNAVIK
  AKTUEL BGUK 191150Z 36005KT 9999 VCFG FEW001 M25/M28 Q0991=
  TAF 9 timer BGUK 191156Z 1912/1921 05006KT 9999 SCT001 TEMPO 1912/1921 1200 BCFG BR BKN001=

ILULISSAT
  AKTUEL BGJN 191150Z 14006KT 9999 -SN FEW009 BKN012 M13/M16 Q0989=
  TAF 9 timer BGJN 191132Z 1912/1921 14006KT 9999 SCT008 BKN015 TEMPO 1912/1919 BKN008 FM191900 16010KT 8000 -SN SCT012 BKN040 TEMPO 1919/1921 3000 -SN BKN010=

KANGERLUSSUAQ
  AKTUEL BGSF 191150Z AUTO 09009KT 030V160 9999NDV NCD M13/M17 Q0988=
  TAF 24 timer BGSF 191052Z 1912/2018 02015KT 9999 BKN150 BECMG 1919/1921 -SN BKN040 TEMPO 1921/1924 VRB05KT 3000 -SN BKN012=


SIGMETS:

SONDRESTROM FIR
  SIGMET BGGL SIGMET 3 VALID 191015/191215 BGSF- BGGL NUUK FIR SEV TURB FCST AT 1015Z WI N6655 W03512 - N6648 W03340 - N6550 W03536 - N6524 W03728 - N6550 W03901 - N6655 W03512 SFC/FL110 STNR WKN=

SONDRESTROM FIR
  SIGMET BGGL SIGMET 4 VALID 191015/191415 BGSF- BGGL NUUK FIR SEV MTW FCST AT 1015Z WI N5951 W04248 - N6002 W04423 - N6317 W04315 - N6304 W04044 - N5951 W04248 SFC/FL180 MOV NNE 05KT INTSF=

SNOWTAM:

ICAO
BGUK (UPERNAVIK)

valid from:
1901191134

Notam_id:
0198

SNOWTAM 0198 A) BGUK B) 01191134 C) 05 F) 3/3/3 G) 3/3/3 H) 1/1/1 N) 3/POOR R) 3/MEDIUM T) RWY CONTAMINATION 100 PERCENT 3MM RIME - MEASURED FRICTION COEFFICIENT 20/20/20 TAP


ICAO
BGJN (ILULISSAT)

valid from:
1901191046

Notam_id:
0160

SNOWTAM 0160 A) BGJN B) 01191046 C) 07 F) 38/38/38 G) 5/5/5 H) 5/5/5 N) 4387/GOOD R) 4387/POOR T) RWY CONTAMINATION 100 PERCENT 2MM RIME AND 10 PERCENT 3MM COMPACTED SNOW - MEASURED FRICTION COEFFICIENTS 47/55/47 TAP - SWEEPING IN PROGRESS


ICAO
BGSF (KANGERLUSSUAQ)

valid from:
1901191100

Notam_id:
0247

SNOWTAM 0247 A) BGSF B) 01191100 C) 09 E) 40 F) 78/78/78 G) 4/4/4 H) 3/1/4 N) A B C/78/POOR D/7/POOR R) N E/78/POOR W/7/POOR HELIPAD/78/POOR T) MEASURED FRICTION COEFFICIENTS 31/24/37 TAP, RWY CONTAMINATION 100 PERCENT OF 2MM ICE, AND 10 PERCENT COMPACTED OR ROLLED SNOW, OUTSIDE OF SWEPT AREA CONTAMINATION 100 PERCENT OF 2MM ICE, 100 PERCENT OF 2MM COMPACTED OR ROLLED SNOW, BA POOR, SWEEPING IN PROGRESS



NOTAM/SNOWTAM for operationel use has to be confirmed with the
nearest AIS Briefing Office prior to a flight.

ICAO
BGQQ (QAANAAQ)

FIR
BGGL

Notam_id:
BGB0811/18

valid from:
1810121100

E) SEA RESCUE SERVICE NOT AVAILABLE

valid to:
1907151100




ICAO
BGUK (UPERNAVIK)

FIR
BGGL

Notam_id:
BGB0928/18

valid from:
1812121246

E) SEA RESCUE SERVICE NOT AVBL.

valid to:
1905312000EST




ICAO
BGUK (UPERNAVIK)

FIR
BGGL

Notam_id:
BGB0975/18

valid from:
1812311245

E) FIRE AND RESCUE CAT.5 ONLY AVAILABLE WHEN REQUESTED DUE TO LACK OF STAFF.

valid to:
1901311500EST


Replacing:
BGB0631/18

ICAO
BGUK (UPERNAVIK)

FIR
BGGL

Notam_id:
BGB0039/19

valid from:
1901181450

E) SNOWREMOVAL DOWNGRADED, DUE TO LACK OF VEHICLE.

valid to:
1902181500EST


Replacing:
BGB0038/19

ICAO
BGGL (SONDRESTROM FIR)

FIR
BGGL

Notam_id:
BGA0001/19

valid from:
1901010555

E) CHECKLIST YEAR=2017 0269 YEAR=2018 0199 0445 0538 0572 0625 0633 0634 0635 0638 0639 0649 0650 0651 0661 0662 0663 YEAR=2019 NIL LATEST PUBLICATIONS AIP AIRAC AMDT IFR 001/2019 EFFECTIVE DATE 31 JAN 19 AIP AMDT IFR 003/2018 EFFECTIVE DATE 15 MAR 18 AIP SUP IFR 006/2018 EFFECTIVE DATE 18 JUN 18 AIC IFR A004/2018 EFFECTIVE DATE 13 DEC 18

valid to:
1902010555EST


Replacing:
BGA0619/18

ICAO
BGGL (SONDRESTROM FIR)

FIR
BGGL

Notam_id:
BGB0001/19

valid from:
1901010555

E) CHECKLIST YEAR=2017 0740 0930 YEAR=2018 0786 0806 0811 0925 0926 0928 0942 0949 0952 0955 0958 0963 0973 0974 0975 YEAR=2019 NIL LATEST PUBLICATIONS AIP AIRAC AMDT IFR 001/2019 EFFECTIVE DATE 31 JAN 19 AIP AMDT IFR 003/2018 EFFECTIVE DATE 15 MAR 18 AIP SUP IFR 006/2018 EFFECTIVE DATE 18 JUN 18 AIC IFR A004/2018 EFFECTIVE DATE 13 DEC 18

valid to:
1902010555EST


Replacing:
BGB0899/18

ICAO
BGGL (SONDRESTROM FIR)

FIR
BGGL

Notam_id:
BGC0001/19

valid from:
1901010556

E) CHECKLIST YEAR=2018 0075 0079 0081 0088 YEAR=2019 NIL LATEST PUBLICATIONS AIP AIRAC AMDT IFR 001/2019 EFFECTIVE DATE 31 JAN 19 AIP AMDT IFR 003/2018 EFFECTIVE DATE 15 MAR 18 AIP SUP IFR 006/2018 EFFECTIVE DATE 18 JUN 18 AIC IFR A004/2018 EFFECTIVE DATE 13 DEC 18

valid to:
1902010556EST


Replacing:
BGC0070/18

ICAO
BGGL (SONDRESTROM FIR)

FIR
BGGL

Notam_id:
BGA0625/18

valid from:
1812071341

E) NUUK INFORMATION FRQ 5526 KHZ PSN 6534N03707E (KULUSUK) OUT OF SERVICE

valid to:
1902071000




ICAO
BGGL (SONDRESTROM FIR)

FIR
BGGL

Notam_id:
BGA0023/19

valid from:
1902280000

E) AIP AIRAC AMDT EFFECTIVE DATE 28 FEB 2019: NIL.

valid to:
1903132359




ICAO
BGGL (SONDRESTROM FIR)

FIR
BGGL

Notam_id:
BGA0633/18

valid from:
1901310000

E) TRIGGER NOTAM - PERM AIP AIRAC AMDT 01/19 WEF 31 JAN 2019. MAGNETIC BEARING UPDATED ON ATS ROUTES W21, W22, W23, W24, W25,W26, W27, W28, W29, W30, W31, W36, W37, W47, W51, W57, W60 AND W65.

valid to:
1902132359




ICAO
BGGL (SONDRESTROM FIR)

FIR
BGGL

Notam_id:
BGA0199/18

valid from:
1805310935

E) GREENLAND AND ADJACENT WATERS ARE CONSIDERED HOSTILE AREAS BY THE CIVIL AVIATION AUTHORITY (TBST). THREE MAJOR REASONS CONTRIBUTE TO DEFINING THE AREA AS HOSTILE: A SAFE FORCED LANDING CANNOT BE ACCOMPLISHED BECAUSE THE SURFACE IS INADEQUATE. THE HELICOPTER OCCUPANTS CANNOT BE ADEQUATELY PROTECTED FROM THE ELEMENTS. SEARCH AND RESCUE RESPONSE/CAPABILITY ARE NOT PROVIDED CONSISTENT WITH ANTICIPATED EXPOSURE.

valid to:
PERM




ICAO
BGJN (ILULISSAT)

FIR
BGGL

Notam_id:
BGB0015/19

valid from:
1901091140

E) APCH LGT RWY 07/25 50 PERCENT OUT OF SERVICE.

valid to:
1902281400




ICAO
BGSF (KANGERLUSSUAQ)

FIR
BGGL

Notam_id:
BGA0019/19

valid from:
1901051250

E) TWY D CLOSED DUE ICE.

valid to:
1902282000EST


Replacing:
BGA0662/18

ICAO
BGSF (KANGERLUSSUAQ)

FIR
BGGL

Notam_id:
BGA0020/19

valid from:
1901051251

E) APRON WEST CLOSED DUE TO ICE.

valid to:
1902282000EST


Replacing:
BGA0663/18

ICAO
BGSF (KANGERLUSSUAQ)

FIR
BGGL

Notam_id:
BGA0634/18

valid from:
1901310000

E) TRIGGER NOTAM - PERM AIP AIRAC AMDT 01/19 WEF 31 JAN 2019. E-MAIL CHANGED.

valid to:
1902132359




ICAO
BGSF (KANGERLUSSUAQ)

FIR
BGGL

Notam_id:
BGA0445/18

valid from:
1809131554

E) BGSF FBO E-MAIL ADDRESS: BGSF(AT)MIT.GL REF AIP GRL/AD 2 - BGSF, GEN 3.3 - 2 AND GEN 3.4 - 3.

valid to:
PERM





Copyright Naviair   2003-2016